createdAt,value
2019-02-24T00:00:02.870Z,85.20
2019-02-24T00:02:33.742Z,85.40
2019-02-24T00:05:03.546Z,86.30
2019-02-24T00:07:32.820Z,86.50
2019-02-24T00:10:03.027Z,86.30
2019-02-24T00:12:32.386Z,86.50
2019-02-24T00:15:01.623Z,87.00
2019-02-24T00:17:30.966Z,87.30
2019-02-24T00:20:00.249Z,86.90
2019-02-24T00:22:29.495Z,86.50
2019-02-24T00:24:58.747Z,86.80
2019-02-24T00:27:28.030Z,87.10
2019-02-24T00:29:57.290Z,86.90
2019-02-24T00:32:26.615Z,87.00
2019-02-24T00:34:55.881Z,86.90
2019-02-24T00:37:25.141Z,87.20
2019-02-24T00:39:54.417Z,86.90
2019-02-24T00:42:23.691Z,86.90
2019-02-24T00:44:52.959Z,87.50
2019-02-24T00:47:22.203Z,87.40
2019-02-24T00:49:51.445Z,86.70
2019-02-24T00:52:20.710Z,86.90
2019-02-24T00:54:50.003Z,86.90
2019-02-24T00:57:19.290Z,86.80
2019-02-24T00:59:48.542Z,86.70
2019-02-24T01:02:17.822Z,86.50
2019-02-24T01:04:47.063Z,86.10
2019-02-24T01:07:16.643Z,86.20
2019-02-24T01:09:45.897Z,86.20
2019-02-24T01:12:15.160Z,86.60
2019-02-24T01:14:44.418Z,86.10
2019-02-24T01:17:13.666Z,86.00
2019-02-24T01:19:42.903Z,86.10
2019-02-24T01:22:12.163Z,85.40
2019-02-24T01:24:41.419Z,85.30
2019-02-24T01:27:10.670Z,85.20
2019-02-24T01:29:39.920Z,85.20
2019-02-24T01:32:09.195Z,85.20
2019-02-24T01:34:38.450Z,85.40
2019-02-24T01:37:07.705Z,85.80
2019-02-24T01:39:36.969Z,86.00
2019-02-24T01:42:06.235Z,86.40
2019-02-24T01:44:35.506Z,86.10
2019-02-24T01:47:04.762Z,86.20
2019-02-24T01:49:35.303Z,86.60
2019-02-24T01:52:04.795Z,87.30
2019-02-24T01:54:34.273Z,88.00
2019-02-24T01:57:03.510Z,88.40
2019-02-24T01:59:32.776Z,88.40
2019-02-24T02:02:02.046Z,87.90
2019-02-24T02:04:31.329Z,88.30
2019-02-24T02:07:00.599Z,88.40
2019-02-24T02:09:29.908Z,88.40
2019-02-24T02:11:59.169Z,88.60
2019-02-24T02:14:28.423Z,89.50
2019-02-24T02:16:57.685Z,90.00
2019-02-24T02:19:26.978Z,90.00
2019-02-24T02:21:56.207Z,90.10
2019-02-24T02:24:25.474Z,90.00
2019-02-24T02:26:54.937Z,90.00
2019-02-24T02:29:24.194Z,90.00
2019-02-24T02:31:53.439Z,90.00
2019-02-24T02:34:24.188Z,89.70
2019-02-24T02:36:53.447Z,90.00
2019-02-24T02:39:22.753Z,90.00
2019-02-24T02:41:52.014Z,90.10
2019-02-24T02:44:21.271Z,90.00
2019-02-24T02:46:50.538Z,90.10
2019-02-24T02:49:19.798Z,90.20
2019-02-24T02:51:49.057Z,90.30
2019-02-24T02:54:18.357Z,90.30
2019-02-24T02:56:47.614Z,90.20
2019-02-24T02:59:16.892Z,90.20
2019-02-24T03:01:46.135Z,90.20
2019-02-24T03:04:16.382Z,90.30
2019-02-24T03:06:47.257Z,90.40
2019-02-24T03:09:16.518Z,90.60
2019-02-24T03:11:45.778Z,90.40
2019-02-24T03:14:15.054Z,90.20
2019-02-24T03:16:44.297Z,90.20
2019-02-24T03:19:13.593Z,90.30
2019-02-24T03:21:42.826Z,90.30
2019-02-24T03:24:12.109Z,90.40
2019-02-24T03:26:41.382Z,90.40
2019-02-24T03:29:10.645Z,90.60
2019-02-24T03:31:39.883Z,90.50
2019-02-24T03:34:09.179Z,90.40
2019-02-24T03:36:39.482Z,90.40
2019-02-24T03:39:08.743Z,90.50
2019-02-24T03:41:38.032Z,90.70
2019-02-24T03:44:07.298Z,90.80
2019-02-24T03:46:36.588Z,91.00
2019-02-24T03:49:05.832Z,91.10
2019-02-24T03:51:35.094Z,91.30
2019-02-24T03:54:04.338Z,91.40
2019-02-24T03:56:33.638Z,91.20
2019-02-24T03:59:02.878Z,91.20
2019-02-24T04:01:32.178Z,91.70
2019-02-24T04:04:01.407Z,91.90
2019-02-24T04:06:30.942Z,91.90
2019-02-24T04:09:00.127Z,91.90
2019-02-24T04:11:29.380Z,91.90
2019-02-24T04:13:58.658Z,91.60
2019-02-24T04:16:27.924Z,91.70
2019-02-24T04:18:57.173Z,92.00
2019-02-24T04:21:26.487Z,92.00
2019-02-24T04:23:55.774Z,92.00
2019-02-24T04:26:25.057Z,91.90
2019-02-24T04:28:54.291Z,91.90
2019-02-24T04:31:23.560Z,91.60
2019-02-24T04:33:52.835Z,91.60
2019-02-24T04:36:22.165Z,91.70
2019-02-24T04:38:52.494Z,91.70
2019-02-24T04:41:21.766Z,91.80
2019-02-24T04:43:51.038Z,91.90
2019-02-24T04:46:20.316Z,91.80
2019-02-24T04:48:50.630Z,92.10
2019-02-24T04:51:19.827Z,92.00
2019-02-24T04:53:49.244Z,91.80
2019-02-24T04:56:19.539Z,91.80
2019-02-24T04:58:48.785Z,91.80
2019-02-24T05:01:18.054Z,91.90
2019-02-24T05:03:48.286Z,92.20
2019-02-24T05:06:17.542Z,92.50
2019-02-24T05:08:46.815Z,92.10
2019-02-24T05:11:16.066Z,92.10
2019-02-24T05:13:45.299Z,92.20
2019-02-24T05:16:14.564Z,92.10
2019-02-24T05:18:43.803Z,92.10
2019-02-24T05:21:13.091Z,92.00
2019-02-24T05:23:43.079Z,92.10
2019-02-24T05:26:12.380Z,92.30
2019-02-24T05:28:41.694Z,92.50
2019-02-24T05:31:10.892Z,92.50
2019-02-24T05:33:40.170Z,92.50
2019-02-24T05:36:09.458Z,92.40
2019-02-24T05:38:38.743Z,92.40
2019-02-24T05:41:08.141Z,92.70
2019-02-24T05:43:37.409Z,92.70
2019-02-24T05:46:06.667Z,92.50
2019-02-24T05:48:35.983Z,92.40
2019-02-24T05:51:05.236Z,92.60
2019-02-24T05:53:34.508Z,92.70
2019-02-24T05:56:03.860Z,92.90
2019-02-24T05:58:33.140Z,92.70
2019-02-24T06:01:02.374Z,92.80
2019-02-24T06:03:31.641Z,92.90
2019-02-24T06:06:00.898Z,92.90
2019-02-24T06:08:30.207Z,92.80
2019-02-24T06:11:18.972Z,92.70
2019-02-24T06:13:48.353Z,92.40
2019-02-24T06:16:17.625Z,92.40
2019-02-24T06:18:46.913Z,92.20
2019-02-24T06:21:16.195Z,92.10
2019-02-24T06:23:45.479Z,92.30
2019-02-24T06:26:14.762Z,92.40
2019-02-24T06:28:44.123Z,92.70
2019-02-24T06:31:13.387Z,92.80
2019-02-24T06:33:42.659Z,92.80
2019-02-24T06:36:11.917Z,93.00
2019-02-24T06:38:41.202Z,93.20
2019-02-24T06:41:10.452Z,93.20
2019-02-24T06:43:39.767Z,92.80
2019-02-24T06:46:09.019Z,92.80
2019-02-24T06:48:38.469Z,93.20
2019-02-24T06:51:09.504Z,93.80
2019-02-24T06:53:38.774Z,93.90
2019-02-24T06:56:09.098Z,93.60
2019-02-24T06:58:38.392Z,93.90
2019-02-24T07:01:07.663Z,93.60
2019-02-24T07:03:36.963Z,93.50
2019-02-24T07:06:06.201Z,93.80
2019-02-24T07:08:35.488Z,93.30
2019-02-24T07:11:04.760Z,93.10
2019-02-24T07:13:35.121Z,93.10
2019-02-24T07:16:04.429Z,93.20
2019-02-24T07:18:33.701Z,93.20
2019-02-24T07:21:06.032Z,93.10
2019-02-24T07:23:35.335Z,93.10
2019-02-24T07:26:04.677Z,93.30
2019-02-24T07:28:33.941Z,93.10
2019-02-24T07:31:03.193Z,93.10
2019-02-24T07:33:32.446Z,93.10
2019-02-24T07:36:01.694Z,93.20
2019-02-24T07:38:31.022Z,93.60
2019-02-24T07:41:00.278Z,93.50
2019-02-24T07:43:29.574Z,93.20
2019-02-24T07:45:58.831Z,92.60
2019-02-24T07:48:28.086Z,91.80
2019-02-24T07:50:57.371Z,91.30
2019-02-24T07:53:26.629Z,90.90
2019-02-24T07:55:55.930Z,90.50
2019-02-24T07:58:25.271Z,89.90
2019-02-24T08:00:54.508Z,89.70
2019-02-24T08:03:23.746Z,89.40
2019-02-24T08:05:52.994Z,89.10
2019-02-24T08:08:22.247Z,88.30
2019-02-24T08:10:51.507Z,86.50
2019-02-24T08:13:20.775Z,86.50
2019-02-24T08:15:51.109Z,86.10
2019-02-24T08:18:20.395Z,83.70
2019-02-24T08:20:49.691Z,81.30
2019-02-24T08:23:18.939Z,81.20
2019-02-24T08:25:48.209Z,81.50
2019-02-24T08:28:17.454Z,80.30
2019-02-24T08:30:46.771Z,80.00
2019-02-24T08:33:15.997Z,78.40
2019-02-24T08:35:45.291Z,78.10
2019-02-24T08:38:14.523Z,78.60
2019-02-24T08:40:43.790Z,78.30
2019-02-24T08:43:13.038Z,78.90
2019-02-24T08:45:42.602Z,78.30
2019-02-24T08:48:11.872Z,77.00
2019-02-24T08:50:41.146Z,76.90
